Winnemucca, Nevada
Current Conditions -  °F | °C
As of 1:56 AM on Friday 31 Oct 2014 (Local Time) from KWMC Reporting Station
Clear Clear  
Wind Chill: 36°   Ceiling: Unl
Heat Index: 36°   Visibility: 10mi
Dew Point: 19°   Wind: 0mph
Humidity: 50%   Direction: NA
Pressure: 29.9"   Gusts: NA
Location:  40.97°N, 117.73°W
Report Text: KWMC 310856Z AUTO 00000KT 10SM CLR 02/M07 A2990 RMK AO2 SLP106 T00221072 56009
Loading
Personal Weather Stations






























Interactive Weather Map
Tropical Storm Tracking
New forecast layout! Learn more

10-Day Weather Forecast

Advertisements
Track Severe Weather on mobile